Time;durP1;ratioP1;P1;durP2;ratioP2;P2;SDS_P1;SDS_P2;PMS_P1;PMS_P2;Temp;Humidity;BMP_temperature;BMP_pressure;BME280_temperature;BME280_humidity;BME280_pressure;Samples;Min_cycle;Max_cycle;Signal;HPM_P1;HPM_P2
2023/07/20 00:01:24;;;;;;;;;2.67;2.67;;;;;;;;5097606;27;45315;-76
2023/07/20 00:03:54;;;;;;;;;2.00;2.00;;;;;;;;5099058;27;45665;-76
2023/07/20 00:06:24;;;;;;;;;3.00;3.00;;;;;;;;5099650;27;45427;-76
2023/07/20 00:08:50;;;;;;;;;3.33;3.00;;;;;;;;5092835;27;45386;-76
2023/07/20 00:11:15;;;;;;;;;3.67;3.00;;;;;;;;5101106;27;45482;-76
2023/07/20 00:13:40;;;;;;;;;3.33;3.00;;;;;;;;5099399;27;47712;-76
2023/07/20 00:16:06;;;;;;;;;2.67;2.00;;;;;;;;5100709;27;45228;-77
2023/07/20 00:18:31;;;;;;;;;3.33;3.00;;;;;;;;5100911;27;45582;-77
2023/07/20 00:20:57;;;;;;;;;4.00;2.67;;;;;;;;5099542;27;45534;-76
2023/07/20 00:23:22;;;;;;;;;3.33;2.33;;;;;;;;5100534;27;46189;-76
2023/07/20 00:25:48;;;;;;;;;3.00;2.00;;;;;;;;5100488;27;45370;-75
2023/07/20 00:28:13;;;;;;;;;3.00;3.00;;;;;;;;5099569;27;45491;-76
2023/07/20 00:30:38;;;;;;;;;2.00;2.00;;;;;;;;5100805;27;45444;-76
2023/07/20 00:33:04;;;;;;;;;3.00;3.00;;;;;;;;5098894;27;45429;-77
2023/07/20 00:35:30;;;;;;;;;4.00;4.00;;;;;;;;5100415;27;45545;-76
2023/07/20 00:37:55;;;;;;;;;3.33;3.00;;;;;;;;5100513;27;45523;-76
2023/07/20 00:40:20;;;;;;;;;4.00;4.00;;;;;;;;5100665;27;45280;-76
2023/07/20 00:42:45;;;;;;;;;4.67;4.33;;;;;;;;5100470;27;45309;-76
2023/07/20 00:45:11;;;;;;;;;4.00;3.00;;;;;;;;5100325;27;45293;-76
2023/07/20 00:47:36;;;;;;;;;2.00;2.00;;;;;;;;5098931;27;45397;-76
2023/07/20 00:50:02;;;;;;;;;5.00;4.00;;;;;;;;5098627;27;45276;-76
2023/07/20 00:52:28;;;;;;;;;2.33;2.33;;;;;;;;5100017;27;46713;-76
2023/07/20 00:54:56;;;;;;;;;3.67;2.00;;;;;;;;5099948;27;45413;-76
2023/07/20 00:57:22;;;;;;;;;4.00;3.00;;;;;;;;5099937;27;45474;-75
2023/07/20 00:59:48;;;;;;;;;4.67;4.00;;;;;;;;5100427;27;45502;-76
2023/07/20 01:02:13;;;;;;;;;2.67;2.67;;;;;;;;5098545;27;46238;-77
2023/07/20 01:04:38;;;;;;;;;3.33;3.33;;;;;;;;5098632;27;45486;-76
2023/07/20 01:07:17;;;;;;;;;4.00;4.00;;;;;;;;5100177;27;45234;-76
2023/07/20 01:09:51;;;;;;;;;3.33;3.33;;;;;;;;5100049;27;45403;-76
2023/07/20 01:12:26;;;;;;;;;3.33;3.00;;;;;;;;5099748;27;45420;-76
2023/07/20 01:14:51;;;;;;;;;2.67;2.00;;;;;;;;5098643;27;45301;-75
2023/07/20 01:17:17;;;;;;;;;3.33;3.33;;;;;;;;5098774;27;45555;-75
2023/07/20 01:19:42;;;;;;;;;3.33;3.00;;;;;;;;5101127;27;45541;-77
2023/07/20 01:22:26;;;;;;;;;3.00;3.00;;;;;;;;5098206;27;46289;-77
2023/07/20 01:25:06;;;;;;;;;3.00;3.00;;;;;;;;5098233;27;45475;-75
2023/07/20 01:27:47;;;;;;;;;3.00;3.00;;;;;;;;5099547;27;45468;-77
2023/07/20 01:30:31;;;;;;;;;3.00;3.00;;;;;;;;5099764;27;45188;-77
2023/07/20 01:32:57;;;;;;;;;4.33;4.00;;;;;;;;5099405;27;46210;-77
2023/07/20 01:35:26;;;;;;;;;5.00;4.00;;;;;;;;5099461;27;45381;-77
2023/07/20 01:37:53;;;;;;;;;2.33;2.00;;;;;;;;5099003;27;45251;-75
2023/07/20 01:40:19;;;;;;;;;4.00;4.00;;;;;;;;5099833;27;45519;-77
2023/07/20 01:42:46;;;;;;;;;4.33;4.00;;;;;;;;5098995;27;45413;-77
2023/07/20 01:45:12;;;;;;;;;3.67;3.00;;;;;;;;5099035;27;45364;-77
2023/07/20 01:47:37;;;;;;;;;3.33;3.33;;;;;;;;5099403;27;45298;-77
2023/07/20 01:50:02;;;;;;;;;3.00;2.00;;;;;;;;5099597;27;45235;-77
2023/07/20 01:52:28;;;;;;;;;3.33;3.00;;;;;;;;5099111;27;45819;-76
2023/07/20 01:54:53;;;;;;;;;4.00;4.00;;;;;;;;5099296;27;45354;-73
2023/07/20 01:57:18;;;;;;;;;4.00;4.00;;;;;;;;5099753;27;45468;-77
2023/07/20 01:59:44;;;;;;;;;5.00;3.00;;;;;;;;5099054;27;45488;-76
2023/07/20 02:02:09;;;;;;;;;4.33;3.67;;;;;;;;5099077;27;46078;-77
2023/07/20 02:04:35;;;;;;;;;2.00;2.00;;;;;;;;5097693;27;45402;-76
2023/07/20 02:07:00;;;;;;;;;1.00;1.00;;;;;;;;5099227;27;45547;-76
2023/07/20 02:09:25;;;;;;;;;1.00;1.00;;;;;;;;5099294;27;45385;-77
2023/07/20 02:11:51;;;;;;;;;2.00;2.00;;;;;;;;5097750;27;45456;-76
2023/07/20 02:14:16;;;;;;;;;2.00;2.00;;;;;;;;5098783;27;45337;-77
2023/07/20 02:16:42;;;;;;;;;3.00;2.00;;;;;;;;5097542;27;45237;-77
2023/07/20 02:19:07;;;;;;;;;1.00;1.00;;;;;;;;5098724;27;45451;-77
2023/07/20 02:21:33;;;;;;;;;1.00;1.00;;;;;;;;5098566;27;45416;-76
2023/07/20 02:23:58;;;;;;;;;1.00;1.00;;;;;;;;5098621;27;45337;-77
2023/07/20 02:26:24;;;;;;;;;2.67;1.33;;;;;;;;5098625;27;45329;-76
2023/07/20 02:28:49;;;;;;;;;2.00;2.00;;;;;;;;5099187;27;45313;-76
2023/07/20 02:31:14;;;;;;;;;2.00;0.33;;;;;;;;5098573;27;45954;-76
2023/07/20 02:33:39;;;;;;;;;2.00;1.67;;;;;;;;5096950;27;45425;-76
2023/07/20 02:36:05;;;;;;;;;2.00;1.33;;;;;;;;5098738;27;45409;-77
2023/07/20 02:38:30;;;;;;;;;2.00;1.33;;;;;;;;5098714;27;45482;-76
2023/07/20 02:40:55;;;;;;;;;1.33;1.00;;;;;;;;5098534;27;45332;-75
2023/07/20 02:43:21;;;;;;;;;1.00;1.00;;;;;;;;5097325;27;45369;-76
2023/07/20 02:45:46;;;;;;;;;2.33;2.00;;;;;;;;5098506;27;45458;-76
2023/07/20 02:48:11;;;;;;;;;2.00;2.00;;;;;;;;5097360;27;45381;-76
2023/07/20 02:50:37;;;;;;;;;3.00;1.00;;;;;;;;5098156;27;45978;-77
2023/07/20 02:53:02;;;;;;;;;0.00;0.00;;;;;;;;5098083;27;45385;-76
2023/07/20 02:55:27;;;;;;;;;2.00;2.00;;;;;;;;5098406;27;45747;-75
2023/07/20 02:57:53;;;;;;;;;2.67;2.00;;;;;;;;5097331;27;45530;-76
2023/07/20 03:00:19;;;;;;;;;1.00;1.00;;;;;;;;5098159;27;45893;-77
2023/07/20 03:02:47;;;;;;;;;3.00;2.67;;;;;;;;5098046;27;45418;-77
2023/07/20 03:05:13;;;;;;;;;3.00;3.00;;;;;;;;5096621;27;45507;-76
2023/07/20 03:07:38;;;;;;;;;2.00;2.00;;;;;;;;5098090;27;45622;-77
2023/07/20 03:10:04;;;;;;;;;2.33;2.33;;;;;;;;5096198;27;47787;-77
2023/07/20 03:12:29;;;;;;;;;2.00;2.00;;;;;;;;5098035;27;45203;-76
2023/07/20 03:14:56;;;;;;;;;1.67;1.67;;;;;;;;5097919;27;46071;-77
2023/07/20 03:17:22;;;;;;;;;3.00;3.00;;;;;;;;5097165;27;45536;-77
2023/07/20 03:19:47;;;;;;;;;5.00;4.00;;;;;;;;5096650;27;48032;-77
2023/07/20 03:22:12;;;;;;;;;2.33;2.00;;;;;;;;5098065;27;45434;-77
2023/07/20 03:24:38;;;;;;;;;3.00;3.00;;;;;;;;5096578;27;45239;-76
2023/07/20 03:27:03;;;;;;;;;2.00;2.00;;;;;;;;5098042;27;45317;-77
2023/07/20 03:29:28;;;;;;;;;2.00;2.00;;;;;;;;5097737;27;46023;-76
2023/07/20 03:31:54;;;;;;;;;2.00;2.00;;;;;;;;5097988;27;45309;-77
2023/07/20 03:34:19;;;;;;;;;1.00;1.00;;;;;;;;5096443;27;45433;-76
2023/07/20 03:36:44;;;;;;;;;2.00;2.00;;;;;;;;5097931;27;45570;-76
2023/07/20 03:39:10;;;;;;;;;2.00;2.00;;;;;;;;5099728;27;45356;-77
2023/07/20 03:41:36;;;;;;;;;2.33;2.33;;;;;;;;5101485;27;45484;-76
2023/07/20 03:44:02;;;;;;;;;3.00;2.00;;;;;;;;5101347;27;45397;-77
2023/07/20 03:46:27;;;;;;;;;3.00;2.33;;;;;;;;5100312;27;45336;-77
2023/07/20 03:48:52;;;;;;;;;2.33;2.00;;;;;;;;5100997;27;45418;-77
2023/07/20 03:51:18;;;;;;;;;1.33;1.33;;;;;;;;5101115;27;45382;-76
2023/07/20 03:53:43;;;;;;;;;3.33;2.33;;;;;;;;5101214;27;45400;-77
2023/07/20 03:56:09;;;;;;;;;3.00;2.00;;;;;;;;5099750;27;45554;-77
2023/07/20 03:58:34;;;;;;;;;3.00;2.67;;;;;;;;5100979;27;45426;-77
2023/07/20 04:00:59;;;;;;;;;2.00;2.00;;;;;;;;5101453;27;45752;-76
2023/07/20 04:03:26;;;;;;;;;3.00;2.00;;;;;;;;5101556;27;45806;-77
2023/07/20 04:05:53;;;;;;;;;2.00;2.00;;;;;;;;5099792;27;45554;-77
2023/07/20 04:08:18;;;;;;;;;2.00;2.00;;;;;;;;5100688;27;45430;-77
2023/07/20 04:10:44;;;;;;;;;2.33;2.33;;;;;;;;5100656;27;45433;-77
2023/07/20 04:13:10;;;;;;;;;3.00;3.00;;;;;;;;5100964;27;45536;-77
2023/07/20 04:15:35;;;;;;;;;5.00;3.00;;;;;;;;5101128;27;45885;-77
2023/07/20 04:18:00;;;;;;;;;3.00;3.00;;;;;;;;5101190;27;45301;-76
2023/07/20 04:20:26;;;;;;;;;3.00;2.33;;;;;;;;5099756;27;45303;-76
2023/07/20 04:22:51;;;;;;;;;2.33;2.00;;;;;;;;5099384;27;45344;-76
2023/07/20 04:25:17;;;;;;;;;3.00;3.00;;;;;;;;5100635;27;45455;-76
2023/07/20 04:27:42;;;;;;;;;3.67;3.00;;;;;;;;5100275;27;46174;-76
2023/07/20 04:30:09;;;;;;;;;2.67;2.67;;;;;;;;5100572;27;45221;-77
2023/07/20 04:32:34;;;;;;;;;5.00;3.67;;;;;;;;5100578;27;45633;-76
2023/07/20 04:34:59;;;;;;;;;2.67;2.67;;;;;;;;5100929;27;45215;-77
2023/07/20 04:37:25;;;;;;;;;2.33;2.33;;;;;;;;5098653;27;47139;-76
2023/07/20 04:39:50;;;;;;;;;2.33;2.33;;;;;;;;5098965;27;45417;-77
2023/07/20 04:42:16;;;;;;;;;3.00;2.33;;;;;;;;5098878;27;45497;-77
2023/07/20 04:44:41;;;;;;;;;4.00;3.00;;;;;;;;5099039;27;45515;-77
2023/07/20 04:47:08;;;;;;;;;4.33;4.33;;;;;;;;5100277;27;45452;-77
2023/07/20 04:49:33;;;;;;;;;3.67;3.67;;;;;;;;5100170;27;45463;-77
2023/07/20 04:51:59;;;;;;;;;4.00;3.00;;;;;;;;5100587;27;45462;-76
2023/07/20 04:54:24;;;;;;;;;4.00;3.00;;;;;;;;5100422;27;45447;-76
2023/07/20 04:56:49;;;;;;;;;3.33;3.33;;;;;;;;5098573;27;47736;-77
2023/07/20 04:59:15;;;;;;;;;3.00;2.67;;;;;;;;5099910;27;45502;-77
2023/07/20 05:01:40;;;;;;;;;3.67;3.67;;;;;;;;5100232;27;45498;-77
2023/07/20 05:04:06;;;;;;;;;4.67;4.00;;;;;;;;5098829;27;45587;-77
2023/07/20 05:06:31;;;;;;;;;5.67;4.00;;;;;;;;5100135;27;46069;-76
2023/07/20 05:08:57;;;;;;;;;4.67;3.33;;;;;;;;5099733;27;45456;-77
2023/07/20 05:11:22;;;;;;;;;4.67;4.00;;;;;;;;5099863;27;45495;-77
2023/07/20 05:13:47;;;;;;;;;4.00;4.00;;;;;;;;5098744;27;45454;-77
2023/07/20 05:16:13;;;;;;;;;6.00;5.00;;;;;;;;5098202;27;46243;-77
2023/07/20 05:18:38;;;;;;;;;6.00;5.00;;;;;;;;5098206;27;45449;-77
2023/07/20 05:21:05;;;;;;;;;5.67;5.67;;;;;;;;5100109;27;45263;-77
2023/07/20 05:23:30;;;;;;;;;6.00;6.00;;;;;;;;5099075;27;45537;-77
2023/07/20 05:25:56;;;;;;;;;6.67;5.33;;;;;;;;5099250;27;45888;-77
2023/07/20 05:28:22;;;;;;;;;9.00;7.00;;;;;;;;5098255;27;45455;-77
2023/07/20 05:30:47;;;;;;;;;6.67;5.67;;;;;;;;5099588;27;45380;-78
2023/07/20 05:33:13;;;;;;;;;5.00;4.00;;;;;;;;5099797;27;45274;-77
2023/07/20 05:35:38;;;;;;;;;6.00;5.00;;;;;;;;5099412;27;45426;-76
2023/07/20 05:38:05;;;;;;;;;5.00;5.00;;;;;;;;5099692;27;45516;-76
2023/07/20 05:40:30;;;;;;;;;4.67;3.33;;;;;;;;5098541;27;45301;-75
2023/07/20 05:42:56;;;;;;;;;4.00;3.33;;;;;;;;5099651;27;45382;-77
2023/07/20 05:45:22;;;;;;;;;3.33;2.00;;;;;;;;5099176;27;45305;-77
2023/07/20 05:47:48;;;;;;;;;6.33;5.33;;;;;;;;5099232;27;45332;-77
2023/07/20 05:50:19;;;;;;;;;3.67;3.67;;;;;;;;5099531;27;45281;-77
2023/07/20 05:55:54;;;;;;;;;2.00;2.00;;;;;;;;5098572;27;45850;-78
2023/07/20 05:58:20;;;;;;;;;4.00;3.00;;;;;;;;5098927;27;45337;-77
2023/07/20 06:00:47;;;;;;;;;3.67;3.67;;;;;;;;5098455;27;45237;-77
2023/07/20 06:03:13;;;;;;;;;6.00;4.00;;;;;;;;5098661;27;45288;-78
2023/07/20 06:05:38;;;;;;;;;4.33;4.00;;;;;;;;5098498;27;47389;-78
2023/07/20 06:08:03;;;;;;;;;3.67;3.67;;;;;;;;5098747;27;45482;-77
2023/07/20 06:10:29;;;;;;;;;5.00;3.33;;;;;;;;5098892;27;45300;-78
2023/07/20 06:15:57;;;;;;;;;5.00;4.00;;;;;;;;5098516;27;45299;-77
2023/07/20 06:18:23;;;;;;;;;5.67;5.00;;;;;;;;5097039;27;45464;-77
2023/07/20 06:20:51;;;;;;;;;6.33;5.67;;;;;;;;5097497;27;45301;-77
2023/07/20 06:23:18;;;;;;;;;6.33;5.00;;;;;;;;5098999;27;45257;-76
2023/07/20 06:25:43;;;;;;;;;5.00;5.00;;;;;;;;5097863;27;45326;-77
2023/07/20 06:28:09;;;;;;;;;6.33;6.00;;;;;;;;5098464;27;45409;-77
2023/07/20 06:30:34;;;;;;;;;4.00;4.00;;;;;;;;5098801;27;45577;-77
2023/07/20 06:33:00;;;;;;;;;5.33;5.00;;;;;;;;5098833;27;45172;-76
2023/07/20 06:35:26;;;;;;;;;5.33;4.00;;;;;;;;5096528;27;46357;-77
2023/07/20 06:37:51;;;;;;;;;5.00;5.00;;;;;;;;5098079;27;45490;-77
2023/07/20 06:40:17;;;;;;;;;11.00;7.00;;;;;;;;5096898;27;45499;-77
2023/07/20 06:42:42;;;;;;;;;6.33;5.00;;;;;;;;5098432;27;45489;-78
2023/07/20 06:45:08;;;;;;;;;9.00;8.00;;;;;;;;5098000;27;45491;-74
2023/07/20 06:47:34;;;;;;;;;6.00;5.33;;;;;;;;5097247;27;45520;-74
2023/07/20 06:49:59;;;;;;;;;5.00;4.33;;;;;;;;5098409;27;45318;-74
2023/07/20 06:52:24;;;;;;;;;5.00;5.00;;;;;;;;5097881;27;45333;-75
2023/07/20 06:54:50;;;;;;;;;8.00;6.00;;;;;;;;5096776;27;45501;-75
2023/07/20 06:57:15;;;;;;;;;5.67;5.67;;;;;;;;5096822;27;45508;-74
2023/07/20 06:59:41;;;;;;;;;7.00;6.00;;;;;;;;5097069;27;45444;-76
2023/07/20 07:02:06;;;;;;;;;3.33;3.33;;;;;;;;5098175;27;45597;-74
2023/07/20 07:04:31;;;;;;;;;2.33;2.33;;;;;;;;5097949;27;45439;-74
2023/07/20 07:06:57;;;;;;;;;3.67;3.33;;;;;;;;5098004;27;45450;-74
2023/07/20 07:12:25;;;;;;;;;6.00;5.33;;;;;;;;5096814;27;45420;-74
2023/07/20 07:14:50;;;;;;;;;5.00;5.00;;;;;;;;5095977;27;46299;-75
2023/07/20 07:17:15;;;;;;;;;5.00;4.33;;;;;;;;5097962;27;45758;-74
2023/07/20 07:19:42;;;;;;;;;6.33;6.00;;;;;;;;5097771;27;45413;-75
2023/07/20 07:22:07;;;;;;;;;6.67;6.00;;;;;;;;5098204;27;45349;-75
2023/07/20 07:24:33;;;;;;;;;5.67;5.00;;;;;;;;5096150;27;45391;-76
2023/07/20 07:26:59;;;;;;;;;5.00;5.00;;;;;;;;5096366;27;45487;-75
2023/07/20 07:29:25;;;;;;;;;8.00;7.00;;;;;;;;5097781;27;45534;-75
2023/07/20 07:31:50;;;;;;;;;6.00;5.00;;;;;;;;5096799;27;45697;-74
2023/07/20 07:34:16;;;;;;;;;4.00;4.00;;;;;;;;5097488;27;46128;-74
2023/07/20 07:36:41;;;;;;;;;6.33;5.33;;;;;;;;5096183;27;45478;-75
2023/07/20 07:39:06;;;;;;;;;5.00;4.33;;;;;;;;5097726;27;45406;-74
2023/07/20 07:41:32;;;;;;;;;5.67;5.00;;;;;;;;5097940;27;45560;-74
2023/07/20 07:43:57;;;;;;;;;5.00;4.33;;;;;;;;5097097;27;47443;-75
2023/07/20 07:46:22;;;;;;;;;6.00;6.00;;;;;;;;5096276;27;45532;-74
2023/07/20 07:48:48;;;;;;;;;6.00;4.00;;;;;;;;5097341;27;45219;-75
2023/07/20 07:51:15;;;;;;;;;5.33;5.00;;;;;;;;5097650;27;45460;-74
2023/07/20 07:53:40;;;;;;;;;5.33;4.00;;;;;;;;5097608;27;45222;-74
2023/07/20 07:56:07;;;;;;;;;5.00;4.67;;;;;;;;5097397;27;45499;-74
2023/07/20 07:58:33;;;;;;;;;5.33;4.67;;;;;;;;5096747;27;45243;-74
2023/07/20 08:00:58;;;;;;;;;5.67;5.00;;;;;;;;5097291;27;46172;-77
2023/07/20 08:03:24;;;;;;;;;6.00;6.00;;;;;;;;5096843;27;45467;-76
2023/07/20 08:05:49;;;;;;;;;6.50;6.00;;;;;;;;5096856;27;45443;-77
2023/07/20 08:08:15;;;;;;;;;5.00;5.00;;;;;;;;5095961;27;45312;-77
2023/07/20 08:10:40;;;;;;;;;5.00;5.00;;;;;;;;5097329;27;45356;-76
2023/07/20 08:13:06;;;;;;;;;6.00;6.00;;;;;;;;5095867;27;47170;-76
2023/07/20 08:15:35;;;;;;;;;7.00;6.00;;;;;;;;5096448;27;45654;-81
2023/07/20 08:18:00;;;;;;;;;6.00;5.67;;;;;;;;5095463;27;45381;-77
2023/07/20 08:20:26;;;;;;;;;4.00;4.00;;;;;;;;5096564;27;45482;-78
2023/07/20 08:22:55;;;;;;;;;6.00;6.00;;;;;;;;5095882;27;45942;-79
2023/07/20 08:25:20;;;;;;;;;5.67;5.67;;;;;;;;5097562;27;45869;-78
2023/07/20 08:27:47;;;;;;;;;5.33;5.00;;;;;;;;5100380;27;45304;-78
2023/07/20 08:30:12;;;;;;;;;5.67;5.00;;;;;;;;5100921;27;45327;-80
2023/07/20 08:32:38;;;;;;;;;4.33;4.33;;;;;;;;5100954;27;46221;-79
2023/07/20 08:35:03;;;;;;;;;4.00;4.00;;;;;;;;5100369;27;45333;-80
2023/07/20 08:37:29;;;;;;;;;5.33;5.33;;;;;;;;5099704;27;45289;-77
2023/07/20 08:39:54;;;;;;;;;5.00;4.00;;;;;;;;5100285;27;45404;-75
2023/07/20 08:42:20;;;;;;;;;6.00;5.00;;;;;;;;5099751;27;45878;-74
2023/07/20 08:44:48;;;;;;;;;5.00;4.00;;;;;;;;5099978;27;45444;-79
2023/07/20 08:47:15;;;;;;;;;37.25;30.00;;;;;;;;5099540;27;45227;-79
2023/07/20 08:49:41;;;;;;;;;26.00;23.00;;;;;;;;5100394;27;45326;-79
2023/07/20 08:52:07;;;;;;;;;6.00;6.00;;;;;;;;5100002;27;46019;-80
2023/07/20 08:54:33;;;;;;;;;6.00;5.33;;;;;;;;5099911;27;45402;-77
2023/07/20 08:57:01;;;;;;;;;7.00;6.00;;;;;;;;5100219;27;45468;-79
2023/07/20 08:59:28;;;;;;;;;5.67;5.00;;;;;;;;5081603;27;45356;-80
2023/07/20 09:01:55;;;;;;;;;7.00;5.33;;;;;;;;5081316;27;47437;-78
2023/07/20 09:04:20;;;;;;;;;4.00;3.67;;;;;;;;5099492;27;45255;-78
2023/07/20 09:06:47;;;;;;;;;4.33;4.33;;;;;;;;5099719;27;45251;-78
2023/07/20 09:09:12;;;;;;;;;5.00;4.33;;;;;;;;5100169;27;45467;-76
2023/07/20 09:11:37;;;;;;;;;7.00;6.67;;;;;;;;5099496;27;45897;-78
2023/07/20 09:14:06;;;;;;;;;5.00;5.00;;;;;;;;5099633;27;45502;-79
2023/07/20 09:16:32;;;;;;;;;14.67;12.67;;;;;;;;5081097;27;45498;-79
2023/07/20 09:18:58;;;;;;;;;7.33;7.00;;;;;;;;5099989;27;45333;-80
2023/07/20 09:21:23;;;;;;;;;6.33;6.33;;;;;;;;5080679;27;47724;-80
2023/07/20 09:23:53;;;;;;;;;6.67;6.00;;;;;;;;5098971;27;45327;-79
2023/07/20 09:26:18;;;;;;;;;6.33;5.00;;;;;;;;5099886;27;45904;-79
2023/07/20 09:28:48;;;;;;;;;7.67;5.33;;;;;;;;5099501;27;45232;-76
2023/07/20 09:31:20;;;;;;;;;6.00;6.00;;;;;;;;5080698;27;45488;-79
2023/07/20 09:33:46;;;;;;;;;4.67;4.67;;;;;;;;5080563;27;45531;-80
2023/07/20 09:36:11;;;;;;;;;4.33;4.00;;;;;;;;5079868;27;45535;-79
2023/07/20 09:38:37;;;;;;;;;6.67;6.00;;;;;;;;5098782;27;45454;-79
2023/07/20 09:41:02;;;;;;;;;5.00;5.00;;;;;;;;5079252;27;47631;-80
2023/07/20 09:43:32;;;;;;;;;5.00;5.00;;;;;;;;5080167;27;45576;-79
2023/07/20 09:45:58;;;;;;;;;5.00;5.00;;;;;;;;5098808;27;45503;-78
2023/07/20 09:48:24;;;;;;;;;3.00;3.00;;;;;;;;5099383;27;45340;-80
2023/07/20 09:50:50;;;;;;;;;6.00;6.00;;;;;;;;5099195;27;46071;-80
2023/07/20 09:53:17;;;;;;;;;5.67;5.00;;;;;;;;5079773;27;45466;-80
2023/07/20 09:55:44;;;;;;;;;7.00;6.00;;;;;;;;5098787;27;45220;-78
2023/07/20 09:58:10;;;;;;;;;7.00;5.33;;;;;;;;5098720;27;45254;-80
2023/07/20 10:00:39;;;;;;;;;7.33;4.00;;;;;;;;5079761;27;48159;-79
2023/07/20 10:03:05;;;;;;;;;6.00;6.00;;;;;;;;5079162;27;45866;-80
2023/07/20 10:05:35;;;;;;;;;10.00;10.00;;;;;;;;5098343;27;45533;-81
2023/07/20 10:08:02;;;;;;;;;6.00;5.67;;;;;;;;5098247;27;45467;-81
2023/07/20 10:10:28;;;;;;;;;6.00;5.33;;;;;;;;5097794;27;45323;-80
2023/07/20 10:12:54;;;;;;;;;6.00;6.00;;;;;;;;5079262;27;45464;-80
2023/07/20 10:15:24;;;;;;;;;6.00;6.00;;;;;;;;5098096;27;45529;-78
2023/07/20 10:17:56;;;;;;;;;7.67;6.33;;;;;;;;5079749;27;45245;-78
2023/07/20 10:20:22;;;;;;;;;7.00;7.00;;;;;;;;5097697;27;45377;-79
2023/07/20 10:22:49;;;;;;;;;6.33;6.33;;;;;;;;5097542;27;45452;-76
2023/07/20 10:25:15;;;;;;;;;8.67;7.00;;;;;;;;5098012;27;45525;-80
2023/07/20 10:27:40;;;;;;;;;5.00;5.00;;;;;;;;5098255;27;45220;-79
2023/07/20 10:30:06;;;;;;;;;5.00;5.00;;;;;;;;5097761;27;46017;-79
2023/07/20 10:32:34;;;;;;;;;7.33;6.33;;;;;;;;5097948;27;45382;-79
2023/07/20 10:35:00;;;;;;;;;6.00;5.00;;;;;;;;5097778;27;45397;-79
2023/07/20 10:37:44;;;;;;;;;5.33;5.33;;;;;;;;5098237;27;45342;-78
2023/07/20 10:40:26;;;;;;;;;5.00;4.00;;;;;;;;5078862;27;46328;-77
2023/07/20 10:42:56;;;;;;;;;5.00;5.00;;;;;;;;5076470;27;45505;-81
2023/07/20 10:45:21;;;;;;;;;5.00;4.33;;;;;;;;5059091;28;45359;-78
2023/07/20 10:47:46;;;;;;;;;8.33;8.00;;;;;;;;5080079;27;45588;-77
2023/07/20 10:50:12;;;;;;;;;6.00;5.00;;;;;;;;5077650;28;46157;-77
2023/07/20 10:52:39;;;;;;;;;5.33;5.33;;;;;;;;5077300;28;45382;-77
2023/07/20 10:55:14;;;;;;;;;4.33;4.33;;;;;;;;5059182;28;45440;-78
2023/07/20 10:57:39;;;;;;;;;7.00;5.67;;;;;;;;5077164;27;45486;-75
2023/07/20 11:00:12;;;;;;;;;4.00;4.00;;;;;;;;5077269;28;45692;-77
2023/07/20 11:02:48;;;;;;;;;4.33;4.00;;;;;;;;5077336;28;45176;-78
2023/07/20 11:05:32;;;;;;;;;6.00;5.00;;;;;;;;5058995;27;45278;-77
2023/07/20 11:07:57;;;;;;;;;6.33;6.00;;;;;;;;5077381;28;45197;-77
2023/07/20 11:10:23;;;;;;;;;4.00;4.00;;;;;;;;5076750;28;45350;-80
2023/07/20 11:13:07;;;;;;;;;2.00;2.00;;;;;;;;5076675;27;45453;-78
2023/07/20 11:16:00;;;;;;;;;4.00;3.33;;;;;;;;5076978;28;45513;-78
2023/07/20 11:18:26;;;;;;;;;5.67;5.67;;;;;;;;5058556;28;45590;-78
2023/07/20 11:20:51;;;;;;;;;3.00;3.00;;;;;;;;5076320;27;46196;-78
2023/07/20 11:23:17;;;;;;;;;4.00;4.00;;;;;;;;5076793;28;45423;-78
2023/07/20 11:25:43;;;;;;;;;3.00;3.00;;;;;;;;5076582;28;45303;-78
2023/07/20 11:28:10;;;;;;;;;3.00;3.00;;;;;;;;5058611;28;45260;-78
2023/07/20 11:30:36;;;;;;;;;3.67;3.00;;;;;;;;5058130;28;47952;-78
2023/07/20 11:33:01;;;;;;;;;5.00;4.33;;;;;;;;5058203;28;45667;-78
2023/07/20 11:35:27;;;;;;;;;3.00;3.00;;;;;;;;5076782;27;45591;-79
2023/07/20 11:37:52;;;;;;;;;4.00;3.67;;;;;;;;5076867;27;45496;-78
2023/07/20 11:40:18;;;;;;;;;4.00;3.67;;;;;;;;5096798;27;45625;-78
2023/07/20 11:42:43;;;;;;;;;3.00;3.00;;;;;;;;5096905;27;45511;-78
2023/07/20 11:45:09;;;;;;;;;3.67;3.00;;;;;;;;5095457;27;45400;-78
2023/07/20 11:47:34;;;;;;;;;3.00;3.00;;;;;;;;5097281;27;45308;-78
2023/07/20 11:50:03;;;;;;;;;3.00;2.67;;;;;;;;5095457;27;46720;-78
2023/07/20 11:52:28;;;;;;;;;3.00;3.00;;;;;;;;5096808;27;45238;-78
2023/07/20 11:54:54;;;;;;;;;2.00;2.00;;;;;;;;5096523;27;45565;-78
2023/07/20 11:57:20;;;;;;;;;4.00;4.00;;;;;;;;5097346;27;45463;-78
2023/07/20 11:59:59;;;;;;;;;4.00;3.33;;;;;;;;5097022;27;45353;-78
2023/07/20 12:02:26;;;;;;;;;3.00;3.00;;;;;;;;5100395;27;45495;-76
2023/07/20 12:04:52;;;;;;;;;2.00;2.00;;;;;;;;5100581;27;45409;-79
2023/07/20 12:07:24;;;;;;;;;3.00;2.00;;;;;;;;5100038;27;45230;-78
2023/07/20 12:10:10;;;;;;;;;2.00;2.00;;;;;;;;5099311;27;48166;-78
2023/07/20 12:12:40;;;;;;;;;3.67;3.00;;;;;;;;5100496;27;45435;-79
2023/07/20 12:15:21;;;;;;;;;2.00;2.00;;;;;;;;5100012;27;45527;-78
2023/07/20 12:17:49;;;;;;;;;2.33;2.33;;;;;;;;5099879;27;45431;-78
2023/07/20 12:20:24;;;;;;;;;3.00;3.00;;;;;;;;5099971;27;45440;-78
2023/07/20 12:22:49;;;;;;;;;2.33;2.00;;;;;;;;5100671;27;45206;-78
2023/07/20 12:25:15;;;;;;;;;3.00;3.00;;;;;;;;5099895;27;45741;-77
2023/07/20 12:27:41;;;;;;;;;3.67;3.33;;;;;;;;5100235;27;45304;-78
2023/07/20 12:30:08;;;;;;;;;2.00;2.00;;;;;;;;5100060;27;47049;-78
2023/07/20 12:32:33;;;;;;;;;3.00;3.00;;;;;;;;5100009;27;45521;-77
2023/07/20 12:35:00;;;;;;;;;2.00;2.00;;;;;;;;5099811;27;45463;-79
2023/07/20 12:37:26;;;;;;;;;4.00;2.67;;;;;;;;5099880;27;45614;-79
2023/07/20 12:39:51;;;;;;;;;3.00;2.67;;;;;;;;5099731;27;46195;-78
2023/07/20 12:42:16;;;;;;;;;3.67;2.33;;;;;;;;5099641;27;45336;-79
2023/07/20 12:44:42;;;;;;;;;3.00;2.00;;;;;;;;5100142;27;45535;-78
2023/07/20 12:47:07;;;;;;;;;3.33;3.00;;;;;;;;5099984;27;45458;-78
2023/07/20 12:49:32;;;;;;;;;2.33;2.33;;;;;;;;5099181;27;45432;-78
2023/07/20 12:51:58;;;;;;;;;3.67;3.67;;;;;;;;5098972;27;45371;-79
2023/07/20 12:54:23;;;;;;;;;4.33;3.67;;;;;;;;5099475;27;45542;-79
2023/07/20 12:56:49;;;;;;;;;3.00;3.00;;;;;;;;5099695;27;45231;-79
2023/07/20 12:59:14;;;;;;;;;3.00;3.00;;;;;;;;5098806;27;45203;-78
2023/07/20 13:01:41;;;;;;;;;3.33;3.33;;;;;;;;5098894;27;45259;-78
2023/07/20 13:04:08;;;;;;;;;3.00;3.00;;;;;;;;5099269;27;45222;-78
2023/07/20 13:06:34;;;;;;;;;4.67;4.00;;;;;;;;5099302;27;45423;-78
2023/07/20 13:09:00;;;;;;;;;4.33;4.33;;;;;;;;5099018;27;45853;-78
2023/07/20 13:11:25;;;;;;;;;3.33;3.33;;;;;;;;5099491;27;45571;-78
2023/07/20 13:13:50;;;;;;;;;3.67;3.67;;;;;;;;5099355;27;45247;-78
2023/07/20 13:16:16;;;;;;;;;5.67;5.67;;;;;;;;5098068;27;45323;-78
2023/07/20 13:18:42;;;;;;;;;4.33;4.00;;;;;;;;5097806;27;46918;-79
2023/07/20 13:21:10;;;;;;;;;5.00;4.00;;;;;;;;5099308;27;45421;-78
2023/07/20 13:23:36;;;;;;;;;4.00;4.00;;;;;;;;5098294;27;45409;-79
2023/07/20 13:26:02;;;;;;;;;4.33;3.33;;;;;;;;5098566;27;45488;-80
2023/07/20 13:28:28;;;;;;;;;5.00;4.00;;;;;;;;5101408;27;46427;-77
2023/07/20 13:30:53;;;;;;;;;80.25;65.00;;;;;;;;5103881;27;45345;-78
2023/07/20 13:33:19;;;;;;;;;6.67;5.00;;;;;;;;5100389;27;45512;-79
2023/07/20 13:35:44;;;;;;;;;6.00;6.00;;;;;;;;5109458;27;45442;-87
2023/07/20 13:38:10;;;;;;;;;5.00;4.00;;;;;;;;5109060;27;46211;-82
2023/07/20 13:40:36;;;;;;;;;5.00;5.00;;;;;;;;5096973;27;45502;-84
2023/07/20 13:43:02;;;;;;;;;3.00;3.00;;;;;;;;5097616;27;45477;-82
2023/07/20 13:45:27;;;;;;;;;4.33;4.33;;;;;;;;5097410;27;45389;-82
2023/07/20 13:47:52;;;;;;;;;20.33;20.33;;;;;;;;5096887;27;46160;-82
2023/07/20 13:50:18;;;;;;;;;37.00;32.75;;;;;;;;5104747;27;45441;-85
2023/07/20 13:52:43;;;;;;;;;17.67;16.33;;;;;;;;5107005;27;45781;-81
2023/07/20 13:55:09;;;;;;;;;7.00;7.00;;;;;;;;5107728;27;45439;-85
2023/07/20 13:57:34;;;;;;;;;4.33;4.33;;;;;;;;5107331;27;45367;-83
2023/07/20 14:00:00;;;;;;;;;5.00;5.00;;;;;;;;5104866;27;45372;-79
2023/07/20 14:02:26;;;;;;;;;6.00;5.33;;;;;;;;5096925;27;45271;-83
2023/07/20 14:04:52;;;;;;;;;5.00;4.33;;;;;;;;5098744;27;45237;-79
2023/07/20 14:07:17;;;;;;;;;3.00;3.00;;;;;;;;5098713;27;45476;-81
2023/07/20 14:09:43;;;;;;;;;3.67;3.67;;;;;;;;5096801;27;45289;-80
2023/07/20 14:12:11;;;;;;;;;4.00;4.00;;;;;;;;5098623;27;45372;-81
2023/07/20 14:14:37;;;;;;;;;9.67;9.67;;;;;;;;5098332;27;45518;-81
2023/07/20 14:17:02;;;;;;;;;4.00;4.00;;;;;;;;5102160;27;46608;-81
2023/07/20 14:19:27;;;;;;;;;6.00;5.00;;;;;;;;5106622;27;45244;-78
2023/07/20 14:21:53;;;;;;;;;7.00;4.33;;;;;;;;5108073;27;45453;-79
2023/07/20 14:24:18;;;;;;;;;8.33;8.00;;;;;;;;5107769;27;45340;-83
2023/07/20 14:26:43;;;;;;;;;5.67;5.00;;;;;;;;5106579;27;46047;-79
2023/07/20 14:29:09;;;;;;;;;4.67;4.67;;;;;;;;5108436;27;45427;-80
2023/07/20 14:31:34;;;;;;;;;5.33;5.00;;;;;;;;5106527;27;45375;-81
2023/07/20 14:34:00;;;;;;;;;5.67;5.00;;;;;;;;5107368;27;45347;-79
2023/07/20 14:36:25;;;;;;;;;5.00;5.00;;;;;;;;5105460;27;46058;-85
2023/07/20 14:38:50;;;;;;;;;5.33;5.00;;;;;;;;5107958;27;45403;-82
2023/07/20 14:41:16;;;;;;;;;4.67;4.33;;;;;;;;5106890;27;45525;-83
2023/07/20 14:43:41;;;;;;;;;3.67;3.67;;;;;;;;5107063;27;45945;-80
2023/07/20 14:46:06;;;;;;;;;5.00;5.00;;;;;;;;5106315;27;47804;-81
2023/07/20 14:48:32;;;;;;;;;4.67;4.00;;;;;;;;5102718;27;45451;-79